Terminal Aerodrome Forecast
Issued by NWS Memphis, TN

Home | Current Version | Previous Version | Text Only | Print | Product List | Glossary On
Versions: 1 2 3 4 5 6 7 8 9 10 11 12 13 14 15 16 17
000
FTUS44 KMEG 020524
TAFMKL
TAF
KMKL 020524Z 0206/0306 16007KT P6SM FEW070
     FM021200 20012G20KT P6SM SCT020 BKN100
     FM021600 20015G23KT P6SM OVC050
      TEMPO 0216/0220 -RA OVC025=

USA.gov is the U.S. government's official web portal to all federal, state and local government web resources and services.